Time;durP1;ratioP1;P1;durP2;ratioP2;P2;SDS_P1;SDS_P2;PMS_P1;PMS_P2;Temp;Humidity;BMP_temperature;BMP_pressure;BME280_temperature;BME280_humidity;BME280_pressure;Samples;Min_cycle;Max_cycle;Signal;HPM_P1;HPM_P2
2022/01/16 00:00:47;;;;;;;0.10;0.10;;;1.50;99.90;;;;;;5042814;28;20100;-68
2022/01/16 00:05:57;;;;;;;0.10;0.10;;;1.60;99.90;;;;;;5044440;28;20036;-68
2022/01/16 00:08:23;;;;;;;0.50;0.50;;;1.70;99.90;;;;;;5046524;28;20029;-69
2022/01/16 00:10:48;;;;;;;0.15;0.15;;;1.80;99.90;;;;;;5057515;28;20109;-68
2022/01/16 00:13:15;;;;;;;0.10;0.10;;;1.70;99.90;;;;;;5026152;28;20065;-69
2022/01/16 00:15:44;;;;;;;0.10;0.10;;;1.60;99.90;;;;;;5028339;28;20095;-70
2022/01/16 00:18:22;;;;;;;0.10;0.10;;;1.50;99.90;;;;;;5046529;28;20029;-68
2022/01/16 00:20:49;;;;;;;0.10;0.10;;;1.30;99.90;;;;;;5051156;28;20056;-69
2022/01/16 00:23:23;;;;;;;0.10;0.10;;;1.20;99.90;;;;;;5039943;28;20033;-68
2022/01/16 00:25:54;;;;;;;0.10;0.10;;;1.70;99.90;;;;;;5047592;28;20038;-69
2022/01/16 00:28:20;;;;;;;0.10;0.10;;;1.10;99.90;;;;;;5044482;28;20048;-68
2022/01/16 00:30:47;;;;;;;3.17;2.92;;;1.20;99.90;;;;;;5054083;28;20047;-67
2022/01/16 00:33:12;;;;;;;0.10;0.10;;;1.20;99.90;;;;;;5049979;28;20104;-67
2022/01/16 00:35:38;;;;;;;5.47;1.85;;;1.30;99.90;;;;;;5047938;28;20119;-68
2022/01/16 00:38:05;;;;;;;0.10;0.10;;;1.30;99.90;;;;;;5041444;28;20049;-68
2022/01/16 00:40:30;;;;;;;0.20;0.20;;;1.30;99.90;;;;;;5049613;28;20064;-69
2022/01/16 00:42:57;;;;;;;2.83;2.70;;;1.50;99.90;;;;;;5041256;28;20435;-69
2022/01/16 00:45:24;;;;;;;0.10;0.10;;;1.50;99.90;;;;;;5049328;28;20177;-69
2022/01/16 00:47:49;;;;;;;0.10;0.10;;;1.60;99.90;;;;;;5050205;28;20067;-69
2022/01/16 00:50:15;;;;;;;0.47;0.47;;;1.50;99.90;;;;;;5030721;28;20057;-69
2022/01/16 00:52:41;;;;;;;0.10;0.10;;;1.50;99.90;;;;;;5055945;28;20788;-68
2022/01/16 00:55:07;;;;;;;0.40;0.40;;;1.50;99.90;;;;;;5047591;28;20037;-69
2022/01/16 00:57:33;;;;;;;0.45;0.45;;;1.40;99.90;;;;;;5047824;28;20027;-69
2022/01/16 00:59:59;;;;;;;0.10;0.10;;;1.50;99.90;;;;;;5045235;28;20092;-68
2022/01/16 01:02:25;;;;;;;0.10;0.10;;;1.40;99.90;;;;;;5052025;28;20549;-68
2022/01/16 01:04:51;;;;;;;0.20;0.20;;;1.40;99.90;;;;;;5058535;28;20495;-69
2022/01/16 01:07:16;;;;;;;0.25;0.25;;;1.40;99.90;;;;;;5049549;28;20036;-68
2022/01/16 01:09:42;;;;;;;0.40;0.40;;;1.40;99.90;;;;;;5049045;28;20021;-68
2022/01/16 01:12:10;;;;;;;0.68;0.68;;;1.40;99.90;;;;;;5070780;28;20462;-68
2022/01/16 01:17:07;;;;;;;0.10;0.10;;;1.40;99.90;;;;;;5052629;28;20020;-68
2022/01/16 01:19:34;;;;;;;0.10;0.10;;;1.40;99.90;;;;;;5045155;28;20215;-67
2022/01/16 01:22:00;;;;;;;0.10;0.10;;;1.50;99.90;;;;;;5046222;28;20017;-68
2022/01/16 01:24:27;;;;;;;0.10;0.10;;;1.50;99.90;;;;;;5055350;28;20026;-68
2022/01/16 01:27:01;;;;;;;0.10;0.10;;;1.50;99.90;;;;;;5043242;28;20220;-68
2022/01/16 01:29:29;;;;;;;0.10;0.10;;;1.50;99.90;;;;;;5044026;28;20025;-69
2022/01/16 01:31:55;;;;;;;0.10;0.10;;;1.50;99.90;;;;;;5043387;28;20020;-69
2022/01/16 01:34:21;;;;;;;0.25;0.25;;;1.60;99.90;;;;;;5039539;28;20104;-69
2022/01/16 01:36:48;;;;;;;0.15;0.15;;;1.60;99.90;;;;;;5046055;28;20534;-70
2022/01/16 01:39:19;;;;;;;0.10;0.10;;;1.70;99.90;;;;;;5042610;28;20065;-69
2022/01/16 01:41:49;;;;;;;4.05;1.35;;;1.70;99.90;;;;;;5040974;28;20025;-69
2022/01/16 01:52:26;;;;;;;0.52;0.52;;;1.70;99.90;;;;;;5043247;28;20048;-69
2022/01/16 01:54:52;;;;;;;1.05;1.05;;;1.60;99.90;;;;;;5047247;28;20029;-69
2022/01/16 01:57:18;;;;;;;0.47;0.47;;;1.70;99.90;;;;;;5042350;28;20096;-69
2022/01/16 01:59:44;;;;;;;2.08;1.98;;;1.60;99.90;;;;;;5057046;28;20025;-70
2022/01/16 02:02:10;;;;;;;0.10;0.10;;;1.50;99.90;;;;;;5046246;28;20016;-69
2022/01/16 02:04:36;;;;;;;0.10;0.10;;;1.40;99.90;;;;;;5061534;28;20041;-69
2022/01/16 02:07:02;;;;;;;0.13;0.13;;;1.50;99.90;;;;;;5049076;28;20028;-69
2022/01/16 02:09:28;;;;;;;0.10;0.10;;;1.50;99.90;;;;;;5047285;28;20033;-69
2022/01/16 02:11:54;;;;;;;0.28;0.28;;;1.60;99.90;;;;;;5046611;28;20025;-68
2022/01/16 02:14:34;;;;;;;0.10;0.10;;;1.50;99.90;;;;;;5047770;28;20025;-70
2022/01/16 02:28:20;;;;;;;0.30;0.30;;;1.70;99.90;;;;;;5043646;28;20114;-69
2022/01/16 02:31:02;;;;;;;3.60;3.28;;;1.60;99.90;;;;;;5038372;28;20028;-70
2022/01/16 02:36:28;;;;;;;0.10;0.10;;;1.20;99.90;;;;;;5039793;28;20032;-69
2022/01/16 02:39:00;;;;;;;2.25;2.05;;;1.50;99.90;;;;;;5039037;28;20107;-69
2022/01/16 02:41:26;;;;;;;0.10;0.10;;;1.30;99.90;;;;;;5041019;28;20040;-69
2022/01/16 02:43:54;;;;;;;0.13;0.13;;;1.30;99.90;;;;;;5044461;28;20021;-70
2022/01/16 02:48:51;;;;;;;3.63;2.72;;;1.40;99.90;;;;;;5048200;28;20022;-70
2022/01/16 02:51:18;;;;;;;0.10;0.10;;;1.40;99.90;;;;;;5042817;28;20035;-70
2022/01/16 02:53:46;;;;;;;0.55;0.55;;;1.40;99.90;;;;;;5024615;28;21921;-70
2022/01/16 02:56:13;;;;;;;1.75;1.65;;;1.40;99.90;;;;;;5033479;28;20040;-71
2022/01/16 02:58:40;;;;;;;0.10;0.10;;;1.40;99.90;;;;;;5043805;28;20063;-69
2022/01/16 03:01:06;;;;;;;0.73;0.73;;;1.40;99.90;;;;;;5046321;28;20082;-69
2022/01/16 03:03:32;;;;;;;0.10;0.10;;;1.30;99.90;;;;;;5056198;28;20032;-69
2022/01/16 03:05:58;;;;;;;0.43;0.43;;;1.30;99.90;;;;;;5052733;28;21867;-70
2022/01/16 03:08:23;;;;;;;0.10;0.10;;;1.20;99.90;;;;;;5046509;28;20040;-69
2022/01/16 03:11:11;;;;;;;0.95;0.95;;;1.20;99.90;;;;;;5043689;28;20034;-69
2022/01/16 03:13:41;;;;;;;0.85;0.85;;;1.20;99.90;;;;;;5045990;28;20021;-69
2022/01/16 03:16:06;;;;;;;0.10;0.10;;;1.20;99.90;;;;;;5045828;28;20018;-70
2022/01/16 03:24:03;;;;;;;0.10;0.10;;;1.10;99.90;;;;;;5046475;28;20168;-70
2022/01/16 03:26:28;;;;;;;0.57;0.57;;;1.10;99.90;;;;;;5054214;28;20025;-71
2022/01/16 03:28:54;;;;;;;0.10;0.10;;;0.90;99.90;;;;;;5049145;28;20022;-70
2022/01/16 03:31:19;;;;;;;0.10;0.10;;;1.00;99.90;;;;;;5049476;28;20045;-70
2022/01/16 03:33:45;;;;;;;0.25;0.25;;;1.20;99.90;;;;;;5046302;28;20037;-70
2022/01/16 03:36:11;;;;;;;2.05;1.95;;;1.20;99.90;;;;;;5049749;28;20033;-70
2022/01/16 03:38:37;;;;;;;0.10;0.10;;;1.20;99.90;;;;;;5055637;28;20117;-70
2022/01/16 03:41:03;;;;;;;2.38;2.17;;;1.20;99.90;;;;;;5053174;28;20025;-70
2022/01/16 03:43:29;;;;;;;1.10;1.10;;;1.20;99.90;;;;;;5048669;28;20095;-70
2022/01/16 03:45:55;;;;;;;0.63;0.63;;;1.20;99.90;;;;;;5048178;28;20509;-70
2022/01/16 03:48:20;;;;;;;0.10;0.10;;;1.20;99.90;;;;;;5048543;28;20170;-70
2022/01/16 03:50:46;;;;;;;0.55;0.55;;;1.10;99.90;;;;;;5052547;28;20029;-70
2022/01/16 03:53:12;;;;;;;0.13;0.13;;;1.10;99.90;;;;;;5031764;28;20552;-70
2022/01/16 03:55:37;;;;;;;0.30;0.30;;;1.20;99.90;;;;;;5053839;28;20110;-70
2022/01/16 03:58:04;;;;;;;0.20;0.20;;;1.10;99.90;;;;;;5049332;28;20074;-70
2022/01/16 04:00:30;;;;;;;0.15;0.15;;;0.90;99.90;;;;;;5058938;28;20020;-71
2022/01/16 04:02:56;;;;;;;0.75;0.75;;;1.10;99.90;;;;;;5053154;28;20053;-70
2022/01/16 04:05:22;;;;;;;0.30;0.30;;;1.10;99.90;;;;;;5049192;28;20078;-70
2022/01/16 04:07:48;;;;;;;0.10;0.10;;;1.10;99.90;;;;;;5059655;28;20076;-69
2022/01/16 04:10:13;;;;;;;0.10;0.10;;;1.00;99.90;;;;;;5048328;28;20472;-69
2022/01/16 04:12:40;;;;;;;0.10;0.10;;;1.10;99.90;;;;;;5038941;28;20044;-70
2022/01/16 04:17:40;;;;;;;0.10;0.10;;;1.10;99.90;;;;;;5050956;28;20132;-70
2022/01/16 04:20:06;;;;;;;0.17;0.17;;;1.10;99.90;;;;;;5048667;28;20070;-69
2022/01/16 04:22:32;;;;;;;0.30;0.30;;;1.10;99.90;;;;;;5046136;28;20032;-70
2022/01/16 04:24:57;;;;;;;1.50;1.48;;;1.10;99.90;;;;;;5047675;28;20029;-69
2022/01/16 04:27:23;;;;;;;1.98;1.88;;;1.10;99.90;;;;;;5062183;22;20048;-70
2022/01/16 04:29:49;;;;;;;0.10;0.10;;;1.00;99.90;;;;;;5058966;28;20036;-70
2022/01/16 04:32:14;;;;;;;0.10;0.10;;;1.00;99.90;;;;;;5050243;28;20051;-70
2022/01/16 04:34:40;;;;;;;0.75;0.75;;;1.10;99.90;;;;;;5042898;28;20040;-70
2022/01/16 04:37:06;;;;;;;0.10;0.10;;;1.30;99.90;;;;;;5049645;28;20486;-71
2022/01/16 04:39:35;;;;;;;1.27;1.27;;;1.10;99.90;;;;;;5049461;28;20399;-69
2022/01/16 04:44:49;;;;;;;1.27;1.17;;;1.00;99.90;;;;;;5047757;28;20037;-69
2022/01/16 04:47:14;;;;;;;0.35;0.35;;;1.10;99.90;;;;;;5044036;28;20035;-71
2022/01/16 04:49:40;;;;;;;1.20;1.20;;;1.10;99.90;;;;;;5048314;28;20104;-71
2022/01/16 04:52:07;;;;;;;0.10;0.10;;;1.10;99.90;;;;;;5047865;28;20501;-69
2022/01/16 04:54:32;;;;;;;3.10;2.95;;;1.00;99.90;;;;;;5048480;28;20017;-71
2022/01/16 04:56:58;;;;;;;0.10;0.10;;;1.00;99.90;;;;;;5049378;28;20779;-70
2022/01/16 04:59:24;;;;;;;6.07;2.45;;;1.00;99.90;;;;;;5049156;28;20109;-71
2022/01/16 05:01:51;;;;;;;0.57;0.55;;;0.90;99.90;;;;;;5047885;28;20502;-70
2022/01/16 05:04:16;;;;;;;1.10;1.10;;;0.90;99.90;;;;;;5045001;28;20468;-70
2022/01/16 05:06:42;;;;;;;0.43;0.43;;;0.90;99.90;;;;;;5056627;28;20111;-70
2022/01/16 05:09:07;;;;;;;0.10;0.10;;;0.90;99.90;;;;;;5046643;28;20379;-70
2022/01/16 05:11:33;;;;;;;0.40;0.40;;;0.90;99.90;;;;;;5049119;28;20128;-72
2022/01/16 05:16:41;;;;;;;1.48;1.38;;;1.00;99.90;;;;;;5052425;28;20119;-70
2022/01/16 05:19:12;;;;;;;0.10;0.10;;;1.10;99.90;;;;;;5048079;28;20133;-70
2022/01/16 05:21:39;;;;;;;0.32;0.32;;;1.00;99.90;;;;;;5047862;28;20029;-70
2022/01/16 05:24:09;;;;;;;0.32;0.32;;;0.90;99.90;;;;;;5047889;28;20090;-70
2022/01/16 05:26:40;;;;;;;0.10;0.10;;;0.80;99.90;;;;;;5049416;28;20024;-70
2022/01/16 05:29:06;;;;;;;0.30;0.30;;;0.70;99.90;;;;;;5043603;28;20035;-70
2022/01/16 05:31:32;;;;;;;0.10;0.10;;;0.70;99.90;;;;;;5051411;28;20146;-71
2022/01/16 05:33:57;;;;;;;0.47;0.47;;;0.70;99.90;;;;;;5046141;28;20486;-71
2022/01/16 05:36:23;;;;;;;0.30;0.30;;;0.50;99.90;;;;;;5045631;28;20039;-72
2022/01/16 05:38:50;;;;;;;0.40;0.40;;;0.50;99.90;;;;;;5045412;28;20033;-69
2022/01/16 05:41:18;;;;;;;0.30;0.30;;;0.50;99.90;;;;;;5047895;28;20063;-71
2022/01/16 05:43:44;;;;;;;1.17;1.17;;;0.50;99.90;;;;;;5046478;28;20032;-69
2022/01/16 05:46:10;;;;;;;0.30;0.30;;;0.40;99.90;;;;;;5028585;28;20029;-71
2022/01/16 05:48:36;;;;;;;0.68;0.68;;;0.40;99.90;;;;;;5046506;28;20052;-71
2022/01/16 05:51:01;;;;;;;0.10;0.10;;;0.40;99.90;;;;;;5046542;28;20367;-71
2022/01/16 05:53:27;;;;;;;0.20;0.20;;;0.40;99.90;;;;;;5044971;28;20025;-71
2022/01/16 05:55:52;;;;;;;0.00;0.00;;;0.60;99.90;;;;;;5046455;28;20029;-72
2022/01/16 05:58:18;;;;;;;0.30;0.30;;;0.60;99.90;;;;;;5048971;28;20025;-70
2022/01/16 06:00:47;;;;;;;0.10;0.10;;;0.50;99.90;;;;;;5047448;28;20036;-70
2022/01/16 06:03:13;;;;;;;0.10;0.10;;;0.10;99.90;;;;;;5045663;28;20017;-70
2022/01/16 06:05:38;;;;;;;0.10;0.10;;;0.40;99.90;;;;;;5046390;28;20037;-72
2022/01/16 06:08:11;;;;;;;0.10;0.10;;;1.00;99.90;;;;;;5043013;28;20030;-73
2022/01/16 06:10:36;;;;;;;2.97;2.72;;;0.40;99.90;;;;;;5046930;28;20055;-70
2022/01/16 06:13:04;;;;;;;0.10;0.10;;;0.30;99.90;;;;;;5040644;28;20489;-71
2022/01/16 06:15:30;;;;;;;0.10;0.10;;;0.10;99.90;;;;;;5045706;28;20036;-71
2022/01/16 06:17:56;;;;;;;0.10;0.10;;;0.10;99.90;;;;;;5046398;28;20021;-71
2022/01/16 06:20:21;;;;;;;0.10;0.10;;;0.10;99.90;;;;;;5047857;28;20017;-70
2022/01/16 06:22:47;;;;;;;0.10;0.10;;;0.00;99.90;;;;;;5043472;28;20032;-70
2022/01/16 06:25:13;;;;;;;0.65;0.65;;;0.00;99.90;;;;;;5045797;28;20423;-71
2022/01/16 06:27:40;;;;;;;0.73;0.73;;;0.00;99.90;;;;;;5001726;28;1130929;-70
2022/01/16 06:30:09;;;;;;;0.10;0.10;;;0.10;99.90;;;;;;5043497;28;20290;-72
2022/01/16 06:32:35;;;;;;;0.17;0.17;;;0.20;99.90;;;;;;5044618;28;20557;-71
2022/01/16 06:35:02;;;;;;;0.10;0.10;;;0.20;99.90;;;;;;5047119;28;20033;-70
2022/01/16 06:37:27;;;;;;;0.22;0.22;;;0.10;99.90;;;;;;5047172;28;20070;-69
2022/01/16 06:39:53;;;;;;;0.10;0.10;;;0.00;99.90;;;;;;5047423;28;20108;-70
2022/01/16 06:42:19;;;;;;;0.95;0.95;;;0.00;99.90;;;;;;5042121;28;20025;-72
2022/01/16 06:44:44;;;;;;;0.10;0.10;;;0.00;99.90;;;;;;5042946;28;20095;-70
2022/01/16 06:47:10;;;;;;;0.63;0.63;;;0.00;99.90;;;;;;5046472;28;20051;-70
2022/01/16 06:49:36;;;;;;;1.85;1.75;;;0.00;99.90;;;;;;5044995;28;20490;-70
2022/01/16 06:52:02;;;;;;;2.70;0.57;;;-0.10;99.90;;;;;;5042770;28;20036;-70
2022/01/16 06:54:28;;;;;;;0.10;0.10;;;-0.10;99.90;;;;;;5045462;28;20032;-72
2022/01/16 06:56:53;;;;;;;0.93;0.93;;;-0.10;99.90;;;;;;5046121;28;20023;-70
2022/01/16 06:59:19;;;;;;;0.10;0.10;;;-0.10;99.90;;;;;;5049527;28;20500;-71
2022/01/16 07:01:45;;;;;;;0.10;0.10;;;0.00;99.90;;;;;;5045265;28;20064;-70
2022/01/16 07:04:10;;;;;;;0.10;0.10;;;0.00;99.90;;;;;;5045509;28;20025;-70
2022/01/16 07:06:36;;;;;;;0.10;0.10;;;0.00;99.90;;;;;;5047082;28;20044;-69
2022/01/16 07:09:02;;;;;;;1.60;1.55;;;0.00;99.90;;;;;;5052960;28;20138;-71
2022/01/16 07:11:27;;;;;;;4.25;2.30;;;0.10;99.90;;;;;;5047039;28;20128;-69
2022/01/16 07:13:53;;;;;;;1.58;1.58;;;0.10;99.90;;;;;;5047616;28;20033;-71
2022/01/16 07:16:18;;;;;;;0.00;0.00;;;0.10;99.90;;;;;;5029871;28;20032;-70
2022/01/16 07:18:44;;;;;;;0.10;0.10;;;0.10;99.90;;;;;;5047848;28;20386;-71
2022/01/16 07:21:13;;;;;;;11.20;6.38;;;0.10;99.90;;;;;;5048692;28;20413;-69
2022/01/16 07:23:43;;;;;;;0.10;0.10;;;0.10;99.90;;;;;;5046861;28;20017;-71
2022/01/16 07:26:09;;;;;;;0.10;0.10;;;0.10;99.90;;;;;;5041177;28;20387;-69
2022/01/16 07:28:35;;;;;;;0.80;0.80;;;0.00;99.90;;;;;;5050606;28;20040;-72
2022/01/16 07:31:01;;;;;;;0.32;0.32;;;0.10;99.90;;;;;;5039351;28;20029;-70
2022/01/16 07:33:27;;;;;;;0.15;0.15;;;0.00;99.90;;;;;;5052540;28;20025;-72
2022/01/16 07:35:52;;;;;;;0.10;0.10;;;0.00;99.90;;;;;;5038271;28;20113;-72
2022/01/16 07:38:18;;;;;;;1.60;1.55;;;0.00;99.90;;;;;;5048810;28;20458;-70
2022/01/16 07:40:44;;;;;;;0.10;0.10;;;0.00;99.90;;;;;;5051360;28;20029;-70
2022/01/16 07:43:09;;;;;;;0.10;0.10;;;0.00;99.90;;;;;;5048184;28;20551;-70
2022/01/16 07:45:37;;;;;;;0.95;0.95;;;-0.10;99.90;;;;;;5030160;28;20033;-73
2022/01/16 07:48:05;;;;;;;0.10;0.10;;;-0.10;99.90;;;;;;5051841;28;20048;-70
2022/01/16 07:50:31;;;;;;;0.38;0.38;;;-0.10;99.90;;;;;;5029702;28;20561;-70
2022/01/16 07:52:57;;;;;;;0.45;0.45;;;-0.20;99.90;;;;;;5049638;28;20025;-70
2022/01/16 07:55:26;;;;;;;0.10;0.10;;;-0.10;99.90;;;;;;5050104;28;20029;-70
2022/01/16 07:57:55;;;;;;;1.67;1.63;;;-0.10;99.90;;;;;;5056073;28;20114;-71
2022/01/16 08:00:22;;;;;;;0.10;0.10;;;0.00;99.90;;;;;;5054074;28;20037;-69
2022/01/16 08:02:49;;;;;;;0.10;0.10;;;0.10;99.90;;;;;;5050726;28;20053;-71
2022/01/16 08:05:15;;;;;;;6.40;3.13;;;0.20;99.90;;;;;;5051326;28;20111;-70
2022/01/16 08:07:42;;;;;;;1.05;1.05;;;0.20;99.90;;;;;;5033346;28;20030;-70
2022/01/16 08:10:08;;;;;;;0.13;0.13;;;0.10;99.90;;;;;;5050760;28;20033;-70
2022/01/16 08:12:34;;;;;;;0.10;0.10;;;0.10;99.90;;;;;;5050195;28;20079;-71
2022/01/16 08:15:00;;;;;;;0.10;0.10;;;0.20;99.90;;;;;;5050488;28;20025;-70
2022/01/16 08:17:26;;;;;;;0.10;0.10;;;0.10;99.90;;;;;;5050572;28;20083;-70
2022/01/16 08:19:52;;;;;;;0.40;0.40;;;0.10;99.90;;;;;;5033814;28;20518;-71
2022/01/16 08:22:17;;;;;;;1.17;1.17;;;0.00;99.90;;;;;;5051520;28;20028;-70
2022/01/16 08:24:43;;;;;;;0.10;0.10;;;0.00;99.90;;;;;;5051316;28;20081;-71
2022/01/16 08:27:09;;;;;;;1.90;1.85;;;0.00;99.90;;;;;;5051452;28;20548;-70
2022/01/16 08:29:34;;;;;;;3.22;3.00;;;0.00;99.90;;;;;;5045372;28;20478;-73
2022/01/16 08:32:00;;;;;;;1.00;0.95;;;0.10;99.90;;;;;;5045065;28;20521;-71
2022/01/16 08:34:25;;;;;;;2.08;1.98;;;0.20;99.90;;;;;;5050309;28;20173;-72
2022/01/16 08:36:51;;;;;;;0.10;0.10;;;0.10;99.90;;;;;;5049656;28;20017;-70
2022/01/16 08:39:17;;;;;;;0.95;0.95;;;0.30;99.90;;;;;;5047496;28;20552;-71
2022/01/16 08:41:42;;;;;;;0.20;0.20;;;0.50;99.90;;;;;;5050016;28;20033;-70
2022/01/16 08:44:08;;;;;;;2.55;2.40;;;0.50;99.90;;;;;;5048406;28;20378;-71
2022/01/16 08:46:34;;;;;;;1.20;1.20;;;0.50;99.90;;;;;;5046374;28;20751;-70
2022/01/16 08:49:00;;;;;;;0.10;0.10;;;0.60;99.90;;;;;;5046977;28;20040;-71
2022/01/16 08:51:27;;;;;;;0.20;0.20;;;0.70;99.90;;;;;;5047051;28;20068;-72
2022/01/16 08:53:52;;;;;;;0.10;0.10;;;0.90;99.90;;;;;;5048762;28;20028;-71
2022/01/16 08:56:18;;;;;;;0.10;0.10;;;1.00;99.90;;;;;;5050285;28;20079;-71
2022/01/16 08:58:44;;;;;;;1.85;1.75;;;1.10;99.90;;;;;;5047587;28;20025;-71
2022/01/16 09:01:09;;;;;;;0.10;0.10;;;1.20;99.90;;;;;;5060286;28;20023;-72
2022/01/16 09:03:37;;;;;;;0.25;0.25;;;1.20;99.90;;;;;;5050184;28;20536;-71
2022/01/16 09:06:03;;;;;;;0.20;0.20;;;1.10;99.90;;;;;;5050367;28;20047;-70
2022/01/16 09:08:28;;;;;;;0.10;0.10;;;1.20;99.90;;;;;;5049282;28;20526;-72
2022/01/16 09:10:54;;;;;;;0.10;0.10;;;1.20;99.90;;;;;;5045952;28;20475;-70
2022/01/16 09:13:20;;;;;;;0.20;0.20;;;1.30;99.90;;;;;;5049772;28;20513;-70
2022/01/16 09:15:47;;;;;;;0.80;0.80;;;1.30;99.90;;;;;;5050218;28;20044;-71
2022/01/16 09:18:14;;;;;;;0.10;0.10;;;1.40;99.90;;;;;;5049756;28;20036;-72
2022/01/16 09:20:40;;;;;;;0.30;0.30;;;1.40;99.90;;;;;;5050103;28;20072;-71
2022/01/16 09:23:06;;;;;;;0.38;0.38;;;1.10;99.90;;;;;;5049023;28;20021;-70
2022/01/16 09:25:32;;;;;;;0.77;0.77;;;1.30;99.90;;;;;;5043198;28;20037;-70
2022/01/16 09:27:58;;;;;;;0.20;0.20;;;1.40;99.90;;;;;;5049476;28;20111;-72
2022/01/16 09:30:24;;;;;;;0.10;0.10;;;1.60;99.90;;;;;;5054925;28;20032;-72
2022/01/16 09:32:50;;;;;;;0.15;0.15;;;1.60;99.90;;;;;;5049074;28;20025;-71
2022/01/16 09:35:17;;;;;;;0.70;0.70;;;1.70;99.90;;;;;;5032100;28;20033;-70
2022/01/16 09:37:43;;;;;;;0.10;0.10;;;1.60;99.90;;;;;;5048596;28;20517;-71
2022/01/16 09:40:12;;;;;;;0.10;0.10;;;1.50;99.90;;;;;;5047862;28;20033;-70
2022/01/16 09:42:38;;;;;;;0.88;0.82;;;1.50;99.90;;;;;;5049318;28;20032;-70
2022/01/16 09:45:06;;;;;;;0.22;0.22;;;1.50;99.90;;;;;;5046042;28;20021;-70
2022/01/16 09:47:32;;;;;;;0.10;0.10;;;1.50;99.90;;;;;;5047552;28;20103;-71
2022/01/16 09:49:58;;;;;;;0.40;0.40;;;1.70;99.90;;;;;;5049409;28;20461;-69
2022/01/16 09:52:24;;;;;;;2.90;2.70;;;1.90;99.90;;;;;;5048738;28;20025;-71
2022/01/16 09:54:50;;;;;;;0.65;0.65;;;2.00;99.90;;;;;;5049692;28;20380;-71
2022/01/16 09:57:16;;;;;;;1.75;0.73;;;1.90;99.90;;;;;;5048506;28;20514;-72
2022/01/16 09:59:44;;;;;;;0.68;0.68;;;2.10;99.90;;;;;;5049259;28;20060;-71
2022/01/16 10:02:10;;;;;;;0.10;0.10;;;1.90;99.90;;;;;;5046770;28;20025;-69
2022/01/16 10:04:36;;;;;;;0.10;0.10;;;2.10;99.90;;;;;;5043802;28;20439;-71
2022/01/16 10:07:05;;;;;;;0.10;0.10;;;2.20;99.90;;;;;;5047285;28;20025;-71
2022/01/16 10:09:30;;;;;;;3.60;3.28;;;2.20;99.90;;;;;;5048028;28;20045;-71
2022/01/16 10:11:59;;;;;;;0.55;0.55;;;2.10;99.90;;;;;;5047876;28;20048;-71
2022/01/16 10:14:36;;;;;;;0.10;0.10;;;2.20;99.90;;;;;;5044576;28;20104;-70
2022/01/16 10:17:20;;;;;;;0.95;0.95;;;2.20;99.90;;;;;;5046585;28;20029;-70
2022/01/16 10:19:56;;;;;;;14.05;4.28;;;2.20;99.90;;;;;;5030274;28;20028;-72
2022/01/16 10:22:22;;;;;;;0.15;0.15;;;2.30;99.90;;;;;;5047413;28;20095;-71
2022/01/16 10:24:51;;;;;;;0.10;0.10;;;2.50;99.90;;;;;;5049262;28;20037;-72
2022/01/16 10:27:18;;;;;;;0.10;0.10;;;2.60;99.90;;;;;;5049587;28;20021;-71
2022/01/16 10:29:51;;;;;;;3.17;2.92;;;2.70;99.90;;;;;;5054930;28;20480;-69
2022/01/16 10:32:23;;;;;;;8.93;5.93;;;2.80;99.90;;;;;;5057388;28;20039;-70
2022/01/16 10:35:09;;;;;;;1.40;1.30;;;2.50;99.90;;;;;;5043127;28;20025;-70
2022/01/16 10:37:36;;;;;;;1.85;1.75;;;2.60;99.90;;;;;;5055664;28;20024;-72
2022/01/16 10:40:14;;;;;;;0.10;0.10;;;2.60;99.90;;;;;;5044775;28;20119;-70
2022/01/16 10:42:41;;;;;;;1.92;1.83;;;2.60;99.90;;;;;;5047064;28;20048;-73
2022/01/16 10:45:15;;;;;;;0.10;0.10;;;2.70;99.90;;;;;;5070431;28;20032;-74
2022/01/16 10:47:51;;;;;;;0.10;0.10;;;3.20;99.90;;;;;;5072404;28;20486;-73
2022/01/16 10:50:32;;;;;;;0.63;0.63;;;2.80;99.90;;;;;;5054318;28;20039;-74
2022/01/16 10:53:13;;;;;;;0.10;0.10;;;2.80;99.90;;;;;;5059238;28;20474;-71
2022/01/16 10:55:54;;;;;;;0.10;0.10;;;2.80;99.90;;;;;;5058910;28;20033;-71
2022/01/16 10:58:33;;;;;;;0.10;0.10;;;2.70;99.90;;;;;;5056735;28;20031;-70
2022/01/16 11:01:03;;;;;;;2.05;1.95;;;2.70;99.90;;;;;;5054444;28;20108;-73
2022/01/16 11:03:41;;;;;;;0.20;0.20;;;2.80;99.90;;;;;;5056267;28;20033;-70
2022/01/16 11:06:07;;;;;;;0.10;0.10;;;2.60;99.90;;;;;;5060174;28;20017;-71
2022/01/16 11:08:34;;;;;;;0.85;0.85;;;2.70;99.90;;;;;;5065916;28;20021;-70
2022/01/16 11:11:00;;;;;;;0.25;0.25;;;2.70;99.90;;;;;;5086329;22;20087;-68
2022/01/16 11:13:30;;;;;;;1.35;1.35;;;2.70;99.90;;;;;;5061085;28;20064;-68
2022/01/16 11:16:07;;;;;;;0.43;0.43;;;2.70;99.90;;;;;;5066606;28;20066;-67
2022/01/16 11:18:48;;;;;;;1.08;1.08;;;3.00;99.90;;;;;;5060971;28;20556;-69
2022/01/16 11:21:18;;;;;;;0.20;0.20;;;3.30;99.90;;;;;;5071629;28;20028;-69
2022/01/16 11:24:01;;;;;;;0.52;0.52;;;3.20;99.90;;;;;;5079461;28;20024;-70
2022/01/16 11:26:27;;;;;;;0.10;0.10;;;3.30;99.90;;;;;;5083470;28;20472;-70
2022/01/16 11:28:56;;;;;;;0.10;0.10;;;3.50;99.90;;;;;;5081421;28;20039;-69
2022/01/16 11:31:23;;;;;;;0.52;0.52;;;3.70;99.90;;;;;;5074960;28;20024;-70
2022/01/16 11:33:49;;;;;;;0.10;0.10;;;3.70;99.90;;;;;;5080990;28;20031;-76
2022/01/16 11:36:25;;;;;;;1.75;1.65;;;3.70;99.90;;;;;;5082380;28;20131;-72
2022/01/16 11:38:56;;;;;;;0.10;0.10;;;3.50;99.90;;;;;;5060609;28;20027;-71
2022/01/16 11:41:31;;;;;;;0.35;0.35;;;3.60;99.90;;;;;;5076030;28;20062;-72
2022/01/16 11:43:58;;;;;;;0.10;0.10;;;3.60;99.90;;;;;;5078248;28;20020;-69
2022/01/16 11:46:26;;;;;;;2.05;1.95;;;3.80;99.90;;;;;;5079465;28;20024;-70
2022/01/16 11:49:00;;;;;;;1.20;1.20;;;4.10;99.90;;;;;;5075145;28;20105;-70
2022/01/16 11:51:35;;;;;;;5.78;1.55;;;3.70;99.90;;;;;;5078718;28;20481;-71
2022/01/16 11:54:12;;;;;;;0.00;0.00;;;3.60;99.90;;;;;;5075064;28;20082;-70
2022/01/16 11:56:40;;;;;;;0.10;0.10;;;3.50;99.90;;;;;;5069947;28;20025;-71
2022/01/16 11:59:24;;;;;;;0.10;0.10;;;3.60;99.90;;;;;;5070949;28;20130;-76
2022/01/16 12:01:55;;;;;;;0.40;0.40;;;3.40;99.90;;;;;;5073208;28;20035;-78
2022/01/16 12:04:30;;;;;;;0.10;0.10;;;3.20;99.90;;;;;;5070492;28;20021;-76
2022/01/16 12:07:04;;;;;;;0.10;0.10;;;3.20;99.90;;;;;;5066266;28;20104;-76
2022/01/16 12:12:03;;;;;;;0.77;0.77;;;3.10;99.90;;;;;;5066011;28;20418;-71
2022/01/16 12:15:00;;;;;;;0.55;0.35;;;3.20;99.90;;;;;;5065650;28;20032;-76
2022/01/16 12:17:26;;;;;;;0.10;0.10;;;3.20;99.90;;;;;;5075331;28;20020;-77
2022/01/16 12:19:53;;;;;;;0.10;0.10;;;3.00;99.90;;;;;;5077444;28;20021;-71
2022/01/16 12:22:43;;;;;;;2.15;2.08;;;3.10;99.90;;;;;;5075370;28;20150;-74
2022/01/16 12:25:22;;;;;;;0.10;0.10;;;3.20;99.90;;;;;;5077957;28;20066;-72
2022/01/16 12:27:49;;;;;;;2.08;1.88;;;3.30;99.90;;;;;;5073207;28;20485;-73
2022/01/16 12:30:44;;;;;;;0.20;0.20;;;3.30;99.90;;;;;;5067818;28;20497;-71
2022/01/16 12:33:15;;;;;;;0.88;0.80;;;3.40;99.90;;;;;;5078595;28;20107;-73
2022/01/16 12:35:41;;;;;;;1.65;1.55;;;3.40;99.90;;;;;;5069376;28;20025;-72
2022/01/16 12:38:11;;;;;;;0.10;0.10;;;3.40;99.90;;;;;;5076080;28;20481;-73
2022/01/16 12:40:39;;;;;;;0.10;0.10;;;3.50;99.90;;;;;;5062685;28;20040;-73
2022/01/16 12:43:09;;;;;;;0.10;0.10;;;3.50;99.90;;;;;;5069494;28;20124;-72
2022/01/16 12:45:37;;;;;;;0.10;0.10;;;3.50;99.90;;;;;;5066725;28;20463;-73
2022/01/16 12:48:03;;;;;;;0.10;0.10;;;3.60;99.90;;;;;;5066254;28;20078;-72
2022/01/16 12:50:29;;;;;;;0.10;0.10;;;3.60;99.90;;;;;;5077412;28;20021;-72
2022/01/16 12:52:55;;;;;;;0.10;0.10;;;3.70;99.90;;;;;;5059735;28;20054;-73
2022/01/16 12:55:29;;;;;;;0.10;0.10;;;3.70;99.90;;;;;;5067972;28;20474;-72
2022/01/16 12:58:15;;;;;;;0.10;0.10;;;3.80;99.90;;;;;;5063963;28;20090;-79
2022/01/16 13:01:01;;;;;;;0.10;0.10;;;3.90;99.90;;;;;;5080769;28;20020;-73
2022/01/16 13:03:29;;;;;;;0.10;0.10;;;3.90;99.90;;;;;;5072293;28;20017;-73
2022/01/16 13:06:34;;;;;;;0.10;0.10;;;3.80;99.90;;;;;;5064933;28;20118;-73
2022/01/16 13:09:06;;;;;;;0.10;0.10;;;3.80;99.90;;;;;;5048234;28;20039;-74
2022/01/16 13:11:41;;;;;;;0.20;0.20;;;3.80;99.90;;;;;;5062015;28;20031;-73
2022/01/16 13:14:09;;;;;;;0.10;0.10;;;3.80;99.90;;;;;;5068856;28;20505;-75
2022/01/16 13:16:45;;;;;;;0.13;0.13;;;3.90;99.90;;;;;;5078118;28;20116;-74
2022/01/16 13:19:17;;;;;;;0.38;0.38;;;3.80;99.90;;;;;;5061481;28;20099;-78
2022/01/16 13:24:39;;;;;;;0.10;0.10;;;3.90;99.90;;;;;;5063093;28;20079;-79
2022/01/16 13:27:08;;;;;;;0.20;0.20;;;3.80;99.90;;;;;;5071109;28;20024;-77
2022/01/16 13:29:37;;;;;;;0.10;0.10;;;3.90;99.90;;;;;;5070787;28;20089;-78
2022/01/16 13:32:05;;;;;;;0.10;0.10;;;3.80;99.90;;;;;;5052215;28;20024;-78
2022/01/16 13:34:30;;;;;;;0.30;0.30;;;3.90;99.90;;;;;;5069648;28;20101;-75
2022/01/16 13:36:57;;;;;;;0.10;0.10;;;3.90;99.90;;;;;;5072621;28;20036;-71
2022/01/16 13:39:35;;;;;;;0.10;0.10;;;3.90;99.90;;;;;;5072923;28;20016;-73
2022/01/16 13:42:15;;;;;;;0.10;0.10;;;3.90;99.90;;;;;;5061261;28;20024;-72
2022/01/16 13:44:41;;;;;;;0.20;0.20;;;4.00;99.90;;;;;;5065562;28;20044;-72
2022/01/16 13:47:07;;;;;;;0.10;0.10;;;4.10;99.90;;;;;;5081040;28;20058;-73
2022/01/16 13:49:33;;;;;;;0.10;0.10;;;4.10;99.90;;;;;;5074441;28;20481;-73
2022/01/16 13:52:00;;;;;;;0.10;0.10;;;4.20;99.90;;;;;;5077581;28;20016;-74